sensor_id;sensor_type;location;lat;lon;timestamp;pressure;altitude;pressure_sealevel;temperature;humidity
71151;BME280;59071;42.138;24.768;2024-01-30T00:01:16;101864.41;;;2.64;53.89
71151;BME280;59071;42.138;24.768;2024-01-30T00:03:42;101860.88;;;2.65;54.62
71151;BME280;59071;42.138;24.768;2024-01-30T00:06:08;101861.34;;;2.84;53.85
71151;BME280;59071;42.138;24.768;2024-01-30T00:08:34;101858.06;;;2.81;53.15
71151;BME280;59071;42.138;24.768;2024-01-30T00:10:59;101863.88;;;2.59;54.01
71151;BME280;59071;42.138;24.768;2024-01-30T00:13:24;101862.69;;;2.50;54.54
71151;BME280;59071;42.138;24.768;2024-01-30T00:15:50;101858.44;;;2.34;54.91
71151;BME280;59071;42.138;24.768;2024-01-30T00:18:15;101873.56;;;2.58;54.19
71151;BME280;59071;42.138;24.768;2024-01-30T00:20:41;101864.38;;;2.51;54.53
71151;BME280;59071;42.138;24.768;2024-01-30T00:23:08;101855.09;;;2.72;53.33
71151;BME280;59071;42.138;24.768;2024-01-30T00:25:33;101869.72;;;2.77;53.51
71151;BME280;59071;42.138;24.768;2024-01-30T00:27:58;101864.72;;;2.59;54.44
71151;BME280;59071;42.138;24.768;2024-01-30T00:30:24;101869.28;;;2.70;53.54
71151;BME280;59071;42.138;24.768;2024-01-30T00:32:49;101863.56;;;2.90;53.38
71151;BME280;59071;42.138;24.768;2024-01-30T00:35:15;101871.91;;;2.70;53.73
71151;BME280;59071;42.138;24.768;2024-01-30T00:37:40;101865.16;;;2.39;54.69
71151;BME280;59071;42.138;24.768;2024-01-30T00:40:06;101865.75;;;2.57;54.26
71151;BME280;59071;42.138;24.768;2024-01-30T00:42:31;101869.03;;;2.60;54.56
71151;BME280;59071;42.138;24.768;2024-01-30T00:44:57;101875.75;;;2.51;54.38
71151;BME280;59071;42.138;24.768;2024-01-30T00:47:23;101874.19;;;2.62;54.60
71151;BME280;59071;42.138;24.768;2024-01-30T00:49:48;101868.47;;;2.28;55.07
71151;BME280;59071;42.138;24.768;2024-01-30T00:52:14;101875.91;;;2.21;54.92
71151;BME280;59071;42.138;24.768;2024-01-30T00:54:40;101867.41;;;2.45;54.87
71151;BME280;59071;42.138;24.768;2024-01-30T00:57:06;101866.16;;;2.23;55.37
71151;BME280;59071;42.138;24.768;2024-01-30T00:59:31;101870.34;;;2.26;54.93
71151;BME280;59071;42.138;24.768;2024-01-30T01:01:57;101871.69;;;2.19;55.46
71151;BME280;59071;42.138;24.768;2024-01-30T01:04:22;101872.69;;;1.60;57.07
71151;BME280;59071;42.138;24.768;2024-01-30T01:06:47;101862.34;;;1.86;56.82
71151;BME280;59071;42.138;24.768;2024-01-30T01:09:13;101869.75;;;1.93;56.08
71151;BME280;59071;42.138;24.768;2024-01-30T01:11:38;101869.19;;;2.03;56.94
71151;BME280;59071;42.138;24.768;2024-01-30T01:14:04;101866.00;;;2.39;56.22
71151;BME280;59071;42.138;24.768;2024-01-30T01:16:30;101860.09;;;2.35;56.27
71151;BME280;59071;42.138;24.768;2024-01-30T01:18:55;101861.75;;;2.51;55.81
71151;BME280;59071;42.138;24.768;2024-01-30T01:21:21;101851.22;;;2.24;56.48
71151;BME280;59071;42.138;24.768;2024-01-30T01:23:46;101852.53;;;2.17;56.25
71151;BME280;59071;42.138;24.768;2024-01-30T01:26:11;101840.88;;;2.35;56.52
71151;BME280;59071;42.138;24.768;2024-01-30T01:28:38;101842.59;;;2.49;55.22
71151;BME280;59071;42.138;24.768;2024-01-30T01:31:04;101837.94;;;2.40;55.11
71151;BME280;59071;42.138;24.768;2024-01-30T01:33:31;101841.13;;;2.18;55.36
71151;BME280;59071;42.138;24.768;2024-01-30T01:35:58;101843.09;;;2.00;56.39
71151;BME280;59071;42.138;24.768;2024-01-30T01:38:23;101832.59;;;2.14;57.12
71151;BME280;59071;42.138;24.768;2024-01-30T01:40:49;101840.16;;;2.19;56.71
71151;BME280;59071;42.138;24.768;2024-01-30T01:43:14;101835.06;;;2.30;56.73
71151;BME280;59071;42.138;24.768;2024-01-30T01:45:40;101844.63;;;2.58;55.96
71151;BME280;59071;42.138;24.768;2024-01-30T01:48:06;101836.00;;;2.29;57.15
71151;BME280;59071;42.138;24.768;2024-01-30T01:50:31;101840.16;;;2.19;56.93
71151;BME280;59071;42.138;24.768;2024-01-30T01:52:58;101824.50;;;1.75;58.28
71151;BME280;59071;42.138;24.768;2024-01-30T01:55:24;101841.72;;;1.65;58.91
71151;BME280;59071;42.138;24.768;2024-01-30T01:57:52;101836.75;;;1.89;58.29
71151;BME280;59071;42.138;24.768;2024-01-30T02:00:18;101848.00;;;1.48;60.09
71151;BME280;59071;42.138;24.768;2024-01-30T02:02:45;101845.66;;;1.44;60.23
71151;BME280;59071;42.138;24.768;2024-01-30T02:05:12;101845.38;;;1.48;61.30
71151;BME280;59071;42.138;24.768;2024-01-30T02:07:37;101850.06;;;1.58;60.76
71151;BME280;59071;42.138;24.768;2024-01-30T02:10:03;101839.38;;;1.32;61.60
71151;BME280;59071;42.138;24.768;2024-01-30T02:12:29;101843.78;;;1.17;62.53
71151;BME280;59071;42.138;24.768;2024-01-30T02:14:55;101849.88;;;1.32;62.32
71151;BME280;59071;42.138;24.768;2024-01-30T02:17:20;101846.97;;;1.36;62.95
71151;BME280;59071;42.138;24.768;2024-01-30T02:19:46;101844.06;;;1.27;63.37
71151;BME280;59071;42.138;24.768;2024-01-30T02:22:11;101853.22;;;1.20;63.07
71151;BME280;59071;42.138;24.768;2024-01-30T02:24:38;101850.75;;;1.02;63.91
71151;BME280;59071;42.138;24.768;2024-01-30T02:27:03;101847.56;;;0.97;64.17
71151;BME280;59071;42.138;24.768;2024-01-30T02:29:28;101852.25;;;1.06;63.10
71151;BME280;59071;42.138;24.768;2024-01-30T02:31:54;101862.88;;;0.58;65.09
71151;BME280;59071;42.138;24.768;2024-01-30T02:34:19;101872.34;;;0.61;65.24
71151;BME280;59071;42.138;24.768;2024-01-30T02:36:45;101866.19;;;0.46;65.73
71151;BME280;59071;42.138;24.768;2024-01-30T02:39:11;101872.50;;;0.58;65.17
71151;BME280;59071;42.138;24.768;2024-01-30T02:41:36;101874.78;;;0.64;65.59
71151;BME280;59071;42.138;24.768;2024-01-30T02:44:04;101868.38;;;0.38;66.10
71151;BME280;59071;42.138;24.768;2024-01-30T02:46:29;101868.91;;;0.29;66.38
71151;BME280;59071;42.138;24.768;2024-01-30T02:48:55;101868.19;;;0.57;65.34
71151;BME280;59071;42.138;24.768;2024-01-30T02:51:21;101867.47;;;0.39;65.49
71151;BME280;59071;42.138;24.768;2024-01-30T02:53:46;101872.19;;;0.16;66.29
71151;BME280;59071;42.138;24.768;2024-01-30T02:56:11;101881.41;;;0.08;66.77
71151;BME280;59071;42.138;24.768;2024-01-30T02:58:39;101871.84;;;0.23;66.48
71151;BME280;59071;42.138;24.768;2024-01-30T03:01:05;101872.03;;;0.35;66.86
71151;BME280;59071;42.138;24.768;2024-01-30T03:03:30;101876.59;;;0.48;66.36
71151;BME280;59071;42.138;24.768;2024-01-30T03:05:56;101880.97;;;0.47;65.58
71151;BME280;59071;42.138;24.768;2024-01-30T03:08:21;101884.81;;;0.72;64.70
71151;BME280;59071;42.138;24.768;2024-01-30T03:10:46;101879.09;;;0.65;65.76
71151;BME280;59071;42.138;24.768;2024-01-30T03:13:12;101860.69;;;0.67;64.76
71151;BME280;59071;42.138;24.768;2024-01-30T03:15:37;101883.16;;;1.01;64.07
71151;BME280;59071;42.138;24.768;2024-01-30T03:18:03;101882.75;;;0.47;65.61
71151;BME280;59071;42.138;24.768;2024-01-30T03:20:31;101883.34;;;0.52;65.78
71151;BME280;59071;42.138;24.768;2024-01-30T03:22:57;101880.97;;;0.63;65.20
71151;BME280;59071;42.138;24.768;2024-01-30T03:25:22;101880.25;;;0.75;65.02
71151;BME280;59071;42.138;24.768;2024-01-30T03:27:48;101864.72;;;0.56;66.20
71151;BME280;59071;42.138;24.768;2024-01-30T03:30:14;101869.63;;;0.93;64.46
71151;BME280;59071;42.138;24.768;2024-01-30T03:32:39;101861.78;;;0.93;64.70
71151;BME280;59071;42.138;24.768;2024-01-30T03:35:05;101863.69;;;0.75;65.25
71151;BME280;59071;42.138;24.768;2024-01-30T03:37:30;101866.41;;;0.73;65.46
71151;BME280;59071;42.138;24.768;2024-01-30T03:39:56;101869.09;;;0.88;65.43
71151;BME280;59071;42.138;24.768;2024-01-30T03:42:22;101871.34;;;0.94;64.09
71151;BME280;59071;42.138;24.768;2024-01-30T03:44:47;101870.94;;;0.86;65.16
71151;BME280;59071;42.138;24.768;2024-01-30T03:47:13;101876.59;;;0.48;66.96
71151;BME280;59071;42.138;24.768;2024-01-30T03:49:38;101870.06;;;0.71;66.62
71151;BME280;59071;42.138;24.768;2024-01-30T03:52:04;101874.34;;;0.72;67.02
71151;BME280;59071;42.138;24.768;2024-01-30T03:54:29;101863.34;;;0.81;65.89
71151;BME280;59071;42.138;24.768;2024-01-30T03:56:54;101870.22;;;0.98;66.68
71151;BME280;59071;42.138;24.768;2024-01-30T03:59:20;101859.97;;;1.09;65.67
71151;BME280;59071;42.138;24.768;2024-01-30T04:01:52;101857.78;;;1.02;65.25
71151;BME280;59071;42.138;24.768;2024-01-30T04:04:18;101867.69;;;0.96;66.15
71151;BME280;59071;42.138;24.768;2024-01-30T04:06:44;101863.47;;;0.94;65.96
71151;BME280;59071;42.138;24.768;2024-01-30T04:09:09;101871.16;;;0.97;65.83
71151;BME280;59071;42.138;24.768;2024-01-30T04:11:35;101867.22;;;0.90;66.81
71151;BME280;59071;42.138;24.768;2024-01-30T04:14:00;101863.16;;;0.54;67.34
71151;BME280;59071;42.138;24.768;2024-01-30T04:16:25;101866.75;;;0.67;67.40
71151;BME280;59071;42.138;24.768;2024-01-30T04:18:52;101875.22;;;0.56;68.39
71151;BME280;59071;42.138;24.768;2024-01-30T04:21:17;101875.88;;;0.60;67.92
71151;BME280;59071;42.138;24.768;2024-01-30T04:23:43;101880.69;;;0.68;67.38
71151;BME280;59071;42.138;24.768;2024-01-30T04:26:08;101874.41;;;0.40;68.18
71151;BME280;59071;42.138;24.768;2024-01-30T04:28:33;101874.47;;;0.23;68.50
71151;BME280;59071;42.138;24.768;2024-01-30T04:30:59;101875.84;;;0.14;68.98
71151;BME280;59071;42.138;24.768;2024-01-30T04:33:24;101873.81;;;0.35;68.51
71151;BME280;59071;42.138;24.768;2024-01-30T04:35:50;101883.84;;;0.11;68.36
71151;BME280;59071;42.138;24.768;2024-01-30T04:38:15;101883.19;;;0.23;68.05
71151;BME280;59071;42.138;24.768;2024-01-30T04:40:40;101890.09;;;0.24;68.17
71151;BME280;59071;42.138;24.768;2024-01-30T04:43:06;101871.34;;;0.32;67.46
71151;BME280;59071;42.138;24.768;2024-01-30T04:45:31;101894.94;;;0.48;67.23
71151;BME280;59071;42.138;24.768;2024-01-30T04:47:57;101898.91;;;0.85;66.28
71151;BME280;59071;42.138;24.768;2024-01-30T04:50:23;101895.63;;;0.97;66.20
71151;BME280;59071;42.138;24.768;2024-01-30T04:52:48;101895.03;;;0.92;66.59
71151;BME280;59071;42.138;24.768;2024-01-30T04:55:13;101895.31;;;0.72;66.91
71151;BME280;59071;42.138;24.768;2024-01-30T04:57:39;101899.44;;;0.92;66.37
71151;BME280;59071;42.138;24.768;2024-01-30T05:00:05;101901.59;;;0.69;67.27
71151;BME280;59071;42.138;24.768;2024-01-30T05:02:30;101900.34;;;1.07;66.72
71151;BME280;59071;42.138;24.768;2024-01-30T05:04:56;101904.84;;;1.19;65.47
71151;BME280;59071;42.138;24.768;2024-01-30T05:07:21;101898.72;;;1.04;65.65
71151;BME280;59071;42.138;24.768;2024-01-30T05:09:47;101908.81;;;0.96;65.24
71151;BME280;59071;42.138;24.768;2024-01-30T05:12:12;101912.25;;;1.12;65.32
71151;BME280;59071;42.138;24.768;2024-01-30T05:14:38;101909.47;;;1.30;64.01
71151;BME280;59071;42.138;24.768;2024-01-30T05:17:03;101914.06;;;0.96;65.23
71151;BME280;59071;42.138;24.768;2024-01-30T05:19:29;101907.19;;;1.24;64.30
71151;BME280;59071;42.138;24.768;2024-01-30T05:21:54;101902.44;;;1.00;65.31
71151;BME280;59071;42.138;24.768;2024-01-30T05:24:20;101904.19;;;1.15;64.19
71151;BME280;59071;42.138;24.768;2024-01-30T05:26:45;101907.38;;;1.21;65.32
71151;BME280;59071;42.138;24.768;2024-01-30T05:29:10;101893.97;;;1.25;63.30
71151;BME280;59071;42.138;24.768;2024-01-30T05:31:36;101898.75;;;1.19;64.04
71151;BME280;59071;42.138;24.768;2024-01-30T05:34:01;101900.44;;;1.20;64.48
71151;BME280;59071;42.138;24.768;2024-01-30T05:36:27;101901.91;;;1.09;64.43
71151;BME280;59071;42.138;24.768;2024-01-30T05:38:52;101906.81;;;1.15;65.18
71151;BME280;59071;42.138;24.768;2024-01-30T05:41:18;101900.09;;;0.95;65.21
71151;BME280;59071;42.138;24.768;2024-01-30T05:43:43;101907.63;;;1.16;64.61
71151;BME280;59071;42.138;24.768;2024-01-30T05:46:09;101909.13;;;1.06;64.75
71151;BME280;59071;42.138;24.768;2024-01-30T05:48:34;101907.00;;;1.12;65.27
71151;BME280;59071;42.138;24.768;2024-01-30T05:51:00;101912.53;;;0.92;65.49
71151;BME280;59071;42.138;24.768;2024-01-30T05:53:26;101913.00;;;0.98;65.78
71151;BME280;59071;42.138;24.768;2024-01-30T05:55:51;101907.78;;;1.29;64.20
71151;BME280;59071;42.138;24.768;2024-01-30T05:58:17;101903.84;;;1.36;64.08
71151;BME280;59071;42.138;24.768;2024-01-30T06:00:42;101898.47;;;0.93;65.82
71151;BME280;59071;42.138;24.768;2024-01-30T06:03:08;101907.84;;;1.13;64.33
71151;BME280;59071;42.138;24.768;2024-01-30T06:05:33;101890.81;;;1.20;64.38
71151;BME280;59071;42.138;24.768;2024-01-30T06:07:58;101909.03;;;1.81;80.17
71151;BME280;59071;42.138;24.768;2024-01-30T06:10:24;101916.50;;;3.64;81.94
71151;BME280;59071;42.138;24.768;2024-01-30T06:12:49;101917.44;;;4.39;70.63
71151;BME280;59071;42.138;24.768;2024-01-30T06:15:14;101914.03;;;5.33;66.29
71151;BME280;59071;42.138;24.768;2024-01-30T06:17:40;101914.94;;;5.21;56.62
71151;BME280;59071;42.138;24.768;2024-01-30T06:20:06;101915.00;;;5.43;52.52
71151;BME280;59071;42.138;24.768;2024-01-30T06:22:31;101917.81;;;3.96;54.46
71151;BME280;59071;42.138;24.768;2024-01-30T06:24:56;101922.16;;;2.92;57.24
71151;BME280;59071;42.138;24.768;2024-01-30T06:27:22;101911.69;;;2.51;59.94
71151;BME280;59071;42.138;24.768;2024-01-30T06:29:47;101900.31;;;3.05;58.19
71151;BME280;59071;42.138;24.768;2024-01-30T06:32:13;101922.00;;;3.21;57.17
71151;BME280;59071;42.138;24.768;2024-01-30T06:34:38;101924.78;;;2.65;58.55
71151;BME280;59071;42.138;24.768;2024-01-30T06:37:05;101917.56;;;2.13;60.67
71151;BME280;59071;42.138;24.768;2024-01-30T06:39:30;101921.81;;;2.15;60.62
71151;BME280;59071;42.138;24.768;2024-01-30T06:41:56;101920.22;;;1.99;62.81
71151;BME280;59071;42.138;24.768;2024-01-30T06:44:21;101918.44;;;1.85;62.89
71151;BME280;59071;42.138;24.768;2024-01-30T06:46:46;101919.94;;;1.89;64.53
71151;BME280;59071;42.138;24.768;2024-01-30T06:49:12;101919.56;;;1.66;63.94
71151;BME280;59071;42.138;24.768;2024-01-30T06:51:37;101927.44;;;1.66;63.89
71151;BME280;59071;42.138;24.768;2024-01-30T06:54:03;101920.22;;;1.70;64.35
71151;BME280;59071;42.138;24.768;2024-01-30T06:56:28;101918.13;;;1.75;64.72
71151;BME280;59071;42.138;24.768;2024-01-30T06:58:54;101923.09;;;1.65;64.14
71151;BME280;59071;42.138;24.768;2024-01-30T07:01:19;101922.25;;;1.65;64.11
71151;BME280;59071;42.138;24.768;2024-01-30T07:03:44;101931.00;;;1.80;63.84
71151;BME280;59071;42.138;24.768;2024-01-30T07:06:10;101934.47;;;1.94;63.10
71151;BME280;59071;42.138;24.768;2024-01-30T07:08:38;101934.28;;;1.98;62.19
71151;BME280;59071;42.138;24.768;2024-01-30T07:11:05;101918.13;;;1.75;64.03
71151;BME280;59071;42.138;24.768;2024-01-30T07:13:31;101933.34;;;1.84;63.28
71151;BME280;59071;42.138;24.768;2024-01-30T07:15:56;101924.13;;;1.63;64.52
71151;BME280;59071;42.138;24.768;2024-01-30T07:18:21;101931.94;;;1.93;63.63
71151;BME280;59071;42.138;24.768;2024-01-30T07:20:47;101925.47;;;1.84;63.31
71151;BME280;59071;42.138;24.768;2024-01-30T07:23:13;101919.72;;;1.49;64.57
71151;BME280;59071;42.138;24.768;2024-01-30T07:25:41;101925.84;;;1.92;63.13
71151;BME280;59071;42.138;24.768;2024-01-30T07:28:10;101935.59;;;1.76;63.71
71151;BME280;59071;42.138;24.768;2024-01-30T07:30:36;101935.94;;;2.13;62.62
71151;BME280;59071;42.138;24.768;2024-01-30T07:33:02;101941.22;;;1.99;62.43
71151;BME280;59071;42.138;24.768;2024-01-30T07:35:27;101942.81;;;2.15;62.97
71151;BME280;59071;42.138;24.768;2024-01-30T07:37:53;101937.00;;;2.25;61.40
71151;BME280;59071;42.138;24.768;2024-01-30T07:40:18;101934.56;;;2.07;61.60
71151;BME280;59071;42.138;24.768;2024-01-30T07:42:43;101931.66;;;1.98;61.85
71151;BME280;59071;42.138;24.768;2024-01-30T07:45:09;101942.47;;;2.49;78.40
71151;BME280;59071;42.138;24.768;2024-01-30T07:47:35;101944.81;;;3.99;72.62
71151;BME280;59071;42.138;24.768;2024-01-30T07:50:00;101938.31;;;5.49;67.50
71151;BME280;59071;42.138;24.768;2024-01-30T07:52:25;101944.16;;;5.42;67.42
71151;BME280;59071;42.138;24.768;2024-01-30T07:54:51;101936.09;;;6.24;59.88
71151;BME280;59071;42.138;24.768;2024-01-30T07:57:17;101938.13;;;6.87;56.19
71151;BME280;59071;42.138;24.768;2024-01-30T07:59:43;101942.97;;;6.26;53.93
71151;BME280;59071;42.138;24.768;2024-01-30T08:02:12;101940.56;;;7.11;58.39
71151;BME280;59071;42.138;24.768;2024-01-30T08:04:38;101941.22;;;7.03;53.61
71151;BME280;59071;42.138;24.768;2024-01-30T08:07:04;101945.34;;;7.80;55.07
71151;BME280;59071;42.138;24.768;2024-01-30T08:09:29;101940.97;;;6.95;46.01
71151;BME280;59071;42.138;24.768;2024-01-30T08:11:54;101934.38;;;5.78;48.08
71151;BME280;59071;42.138;24.768;2024-01-30T08:14:20;101937.00;;;4.84;50.85
71151;BME280;59071;42.138;24.768;2024-01-30T08:16:45;101931.97;;;4.07;52.39
71151;BME280;59071;42.138;24.768;2024-01-30T08:19:11;101928.16;;;3.86;52.97
71151;BME280;59071;42.138;24.768;2024-01-30T08:21:36;101912.28;;;2.96;55.17
71151;BME280;59071;42.138;24.768;2024-01-30T08:24:05;101923.75;;;2.68;56.25
71151;BME280;59071;42.138;24.768;2024-01-30T08:26:34;101937.75;;;2.96;56.84
71151;BME280;59071;42.138;24.768;2024-01-30T08:29:00;101934.72;;;3.55;54.99
71151;BME280;59071;42.138;24.768;2024-01-30T08:31:26;101920.28;;;3.60;54.17
71151;BME280;59071;42.138;24.768;2024-01-30T08:33:52;101926.06;;;3.65;53.78
71151;BME280;59071;42.138;24.768;2024-01-30T08:36:18;101928.94;;;3.09;54.78
71151;BME280;59071;42.138;24.768;2024-01-30T08:38:43;101932.81;;;3.04;54.73
71151;BME280;59071;42.138;24.768;2024-01-30T08:41:09;101933.88;;;3.01;56.07
71151;BME280;59071;42.138;24.768;2024-01-30T08:43:34;101918.97;;;3.15;54.92
71151;BME280;59071;42.138;24.768;2024-01-30T08:46:01;101936.22;;;3.19;54.55
71151;BME280;59071;42.138;24.768;2024-01-30T08:48:27;101922.25;;;3.31;54.20
71151;BME280;59071;42.138;24.768;2024-01-30T08:50:53;101930.00;;;3.07;54.26
71151;BME280;59071;42.138;24.768;2024-01-30T08:53:18;101934.94;;;3.11;54.19
71151;BME280;59071;42.138;24.768;2024-01-30T08:55:44;101932.53;;;3.21;54.03
71151;BME280;59071;42.138;24.768;2024-01-30T08:58:09;101933.81;;;3.28;53.41
71151;BME280;59071;42.138;24.768;2024-01-30T09:00:35;101936.28;;;3.70;52.52
71151;BME280;59071;42.138;24.768;2024-01-30T09:03:00;101927.34;;;3.47;52.38
71151;BME280;59071;42.138;24.768;2024-01-30T09:05:25;101931.44;;;3.64;52.35
71151;BME280;59071;42.138;24.768;2024-01-30T09:07:51;101926.91;;;3.91;51.70
71151;BME280;59071;42.138;24.768;2024-01-30T09:10:16;101929.97;;;3.85;51.34
71151;BME280;59071;42.138;24.768;2024-01-30T09:12:41;101914.47;;;3.29;52.67
71151;BME280;59071;42.138;24.768;2024-01-30T09:15:07;101921.84;;;3.50;51.63
71151;BME280;59071;42.138;24.768;2024-01-30T09:17:33;101925.00;;;3.81;50.86
71151;BME280;59071;42.138;24.768;2024-01-30T09:19:58;101921.34;;;3.96;50.00
71151;BME280;59071;42.138;24.768;2024-01-30T09:22:24;101910.47;;;3.49;51.59
71151;BME280;59071;42.138;24.768;2024-01-30T09:24:50;101909.41;;;3.65;51.17
71151;BME280;59071;42.138;24.768;2024-01-30T09:27:15;101906.47;;;3.82;51.30
71151;BME280;59071;42.138;24.768;2024-01-30T09:29:40;101911.53;;;3.98;50.84
71151;BME280;59071;42.138;24.768;2024-01-30T09:32:06;101905.91;;;4.03;50.51
71151;BME280;59071;42.138;24.768;2024-01-30T09:34:32;101908.19;;;4.20;49.88
71151;BME280;59071;42.138;24.768;2024-01-30T09:37:00;101898.34;;;3.72;51.91
71151;BME280;59071;42.138;24.768;2024-01-30T09:39:26;101899.38;;;3.96;50.98
71151;BME280;59071;42.138;24.768;2024-01-30T09:44:43;101880.66;;;4.24;50.34
71151;BME280;59071;42.138;24.768;2024-01-30T09:47:09;101876.63;;;3.95;50.17
71151;BME280;59071;42.138;24.768;2024-01-30T09:49:35;101896.34;;;3.89;50.75
71151;BME280;59071;42.138;24.768;2024-01-30T09:52:02;101884.66;;;3.93;50.89
71151;BME280;59071;42.138;24.768;2024-01-30T09:54:30;101892.66;;;3.91;52.24
71151;BME280;59071;42.138;24.768;2024-01-30T09:56:57;101876.34;;;3.61;51.89
71151;BME280;59071;42.138;24.768;2024-01-30T09:59:22;101883.78;;;4.05;50.21
71151;BME280;59071;42.138;24.768;2024-01-30T10:01:49;101880.94;;;4.08;50.49
71151;BME280;59071;42.138;24.768;2024-01-30T10:04:15;101882.00;;;4.06;50.61
71151;BME280;59071;42.138;24.768;2024-01-30T10:06:40;101877.78;;;4.40;50.49
71151;BME280;59071;42.138;24.768;2024-01-30T10:09:06;101882.31;;;4.38;49.52
71151;BME280;59071;42.138;24.768;2024-01-30T10:11:33;101874.13;;;4.54;49.42
71151;BME280;59071;42.138;24.768;2024-01-30T10:14:00;101880.75;;;4.60;49.02
71151;BME280;59071;42.138;24.768;2024-01-30T10:16:25;101880.75;;;4.60;49.35
71151;BME280;59071;42.138;24.768;2024-01-30T10:18:50;101870.19;;;4.84;48.31
71151;BME280;59071;42.138;24.768;2024-01-30T10:21:16;101878.84;;;4.86;48.28
71151;BME280;59071;42.138;24.768;2024-01-30T10:23:43;101866.19;;;5.14;47.38
71151;BME280;59071;42.138;24.768;2024-01-30T10:26:09;101873.75;;;5.07;46.87
71151;BME280;59071;42.138;24.768;2024-01-30T10:28:35;101867.19;;;5.24;46.98
71151;BME280;59071;42.138;24.768;2024-01-30T10:31:00;101876.34;;;4.96;47.66
71151;BME280;59071;42.138;24.768;2024-01-30T10:33:26;101858.56;;;5.22;47.39
71151;BME280;59071;42.138;24.768;2024-01-30T10:35:55;101871.41;;;5.38;46.70
71151;BME280;59071;42.138;24.768;2024-01-30T10:38:28;101873.56;;;5.33;46.33
71151;BME280;59071;42.138;24.768;2024-01-30T10:40:56;101864.22;;;5.40;46.57
71151;BME280;59071;42.138;24.768;2024-01-30T10:43:22;101851.97;;;5.27;46.52
71151;BME280;59071;42.138;24.768;2024-01-30T10:45:49;101866.28;;;5.59;45.72
71151;BME280;59071;42.138;24.768;2024-01-30T10:48:18;101860.78;;;5.73;44.82
71151;BME280;59071;42.138;24.768;2024-01-30T10:50:46;101848.16;;;5.54;44.92
71151;BME280;59071;42.138;24.768;2024-01-30T10:53:13;101861.81;;;5.25;46.43
71151;BME280;59071;42.138;24.768;2024-01-30T10:55:39;101857.72;;;5.33;46.03
71151;BME280;59071;42.138;24.768;2024-01-30T10:58:05;101852.13;;;5.60;45.54
71151;BME280;59071;42.138;24.768;2024-01-30T11:00:31;101853.47;;;5.65;45.37
71151;BME280;59071;42.138;24.768;2024-01-30T11:02:58;101851.38;;;5.80;44.99
71151;BME280;59071;42.138;24.768;2024-01-30T11:05:24;101849.84;;;5.89;44.99
71151;BME280;59071;42.138;24.768;2024-01-30T11:07:51;101846.13;;;5.46;45.34
71151;BME280;59071;42.138;24.768;2024-01-30T11:10:17;101840.22;;;5.77;44.60
71151;BME280;59071;42.138;24.768;2024-01-30T11:12:42;101838.16;;;6.14;43.66
71151;BME280;59071;42.138;24.768;2024-01-30T11:15:14;101821.25;;;6.05;43.74
71151;BME280;59071;42.138;24.768;2024-01-30T11:17:43;101836.50;;;5.91;43.75
71151;BME280;59071;42.138;24.768;2024-01-30T11:20:11;101839.44;;;6.31;42.48
71151;BME280;59071;42.138;24.768;2024-01-30T11:22:37;101834.59;;;6.48;42.51
71151;BME280;59071;42.138;24.768;2024-01-30T11:25:02;101827.03;;;6.75;42.22
71151;BME280;59071;42.138;24.768;2024-01-30T11:27:30;101823.72;;;6.83;41.66
71151;BME280;59071;42.138;24.768;2024-01-30T11:30:02;101824.97;;;7.52;40.94
71151;BME280;59071;42.138;24.768;2024-01-30T11:32:28;101816.22;;;7.61;40.71
71151;BME280;59071;42.138;24.768;2024-01-30T11:34:54;101817.41;;;7.78;40.15
71151;BME280;59071;42.138;24.768;2024-01-30T11:37:20;101802.88;;;7.72;39.89
71151;BME280;59071;42.138;24.768;2024-01-30T11:39:47;101807.63;;;7.78;39.63
71151;BME280;59071;42.138;24.768;2024-01-30T11:42:13;101809.63;;;7.86;39.71
71151;BME280;59071;42.138;24.768;2024-01-30T11:44:38;101806.16;;;7.95;39.75
71151;BME280;59071;42.138;24.768;2024-01-30T11:47:04;101796.94;;;7.99;39.57
71151;BME280;59071;42.138;24.768;2024-01-30T11:49:29;101795.75;;;7.73;39.73
71151;BME280;59071;42.138;24.768;2024-01-30T11:51:55;101801.38;;;7.79;39.28
71151;BME280;59071;42.138;24.768;2024-01-30T11:54:20;101790.25;;;7.95;38.79
71151;BME280;59071;42.138;24.768;2024-01-30T11:56:46;101795.22;;;7.69;38.73
71151;BME280;59071;42.138;24.768;2024-01-30T11:59:11;101785.56;;;7.58;38.90
71151;BME280;59071;42.138;24.768;2024-01-30T12:01:37;101777.88;;;7.24;39.25
71151;BME280;59071;42.138;24.768;2024-01-30T12:04:02;101778.81;;;7.44;38.99
71151;BME280;59071;42.138;24.768;2024-01-30T12:06:28;101776.31;;;7.53;39.05
71151;BME280;59071;42.138;24.768;2024-01-30T12:09:00;101768.34;;;7.93;37.98
71151;BME280;59071;42.138;24.768;2024-01-30T12:11:29;101769.16;;;7.94;38.47
71151;BME280;59071;42.138;24.768;2024-01-30T12:13:55;101767.53;;;8.32;37.93
71151;BME280;59071;42.138;24.768;2024-01-30T12:16:21;101759.50;;;7.63;38.77
71151;BME280;59071;42.138;24.768;2024-01-30T12:18:47;101762.34;;;7.91;38.07
71151;BME280;59071;42.138;24.768;2024-01-30T12:21:16;101749.28;;;7.59;38.70
71151;BME280;59071;42.138;24.768;2024-01-30T12:23:42;101748.63;;;7.76;38.57
71151;BME280;59071;42.138;24.768;2024-01-30T12:26:08;101742.38;;;7.77;38.40
71151;BME280;59071;42.138;24.768;2024-01-30T12:28:33;101731.19;;;7.64;39.33
71151;BME280;59071;42.138;24.768;2024-01-30T12:31:02;101730.28;;;7.54;38.42
71151;BME280;59071;42.138;24.768;2024-01-30T12:33:29;101731.91;;;7.76;38.05
71151;BME280;59071;42.138;24.768;2024-01-30T12:35:55;101727.47;;;8.15;37.61
71151;BME280;59071;42.138;24.768;2024-01-30T12:38:20;101717.13;;;7.93;37.40
71151;BME280;59071;42.138;24.768;2024-01-30T12:40:45;101734.31;;;7.98;37.85
71151;BME280;59071;42.138;24.768;2024-01-30T12:43:13;101731.84;;;7.56;38.36
71151;BME280;59071;42.138;24.768;2024-01-30T12:45:38;101732.09;;;7.43;38.21